Terminal Aerodrome Forecast
Issued by NWS

Home | Current Version | Previous Version | Text Only | Print | Product List | Glossary On
Versions: 1 2 3 4 5 6 7 8 9 10 11 12 13 14 15 16 17 18
000
FTUS43 KOAX 011212 CCA
TAFBFF
TAF COR
KBFF 011212Z 0112/0212 01005KT P6SM SCT020 OVC070
      TEMPO 0112/0116 BKN020
     FM020200 11007KT P6SM BKN035=

USA.gov is the U.S. government's official web portal to all federal, state and local government web resources and services.